createdAt,value
2023-07-24T00:00:36.613Z,100063.84
2023-07-24T00:03:24.024Z,100056.94
2023-07-24T00:05:51.151Z,100051.75
2023-07-24T00:08:17.989Z,100048.09
2023-07-24T00:10:45.120Z,100046.72
2023-07-24T00:13:12.048Z,100041.53
2023-07-24T00:15:40.009Z,100043.88
2023-07-24T00:18:06.848Z,100040.88
2023-07-24T00:20:34.004Z,100045.06
2023-07-24T00:23:00.870Z,100043.41
2023-07-24T00:25:28.060Z,100039.41
2023-07-24T00:27:55.186Z,100040.56
2023-07-24T00:30:22.331Z,100026.69
2023-07-24T00:35:16.319Z,100035.06
2023-07-24T00:37:43.204Z,100032.88
2023-07-24T00:40:10.688Z,100027.19
2023-07-24T00:42:37.469Z,100023.22
2023-07-24T00:45:05.626Z,100017.59
2023-07-24T00:47:32.692Z,100015.97
2023-07-24T00:50:00.026Z,100013.56
2023-07-24T00:52:27.015Z,100009.72
2023-07-24T00:54:54.811Z,100012.78
2023-07-24T00:57:21.706Z,100006.13
2023-07-24T00:59:48.840Z,100006.94
2023-07-24T01:02:15.796Z,100004.91
2023-07-24T01:04:43.023Z,99995.72
2023-07-24T01:07:10.052Z,99998.59
2023-07-24T01:09:37.170Z,99993.72
2023-07-24T01:12:33.567Z,99998.81
2023-07-24T01:15:15.370Z,99998.31
2023-07-24T01:17:49.318Z,99997.50
2023-07-24T01:20:18.733Z,99995.81
2023-07-24T01:23:08.695Z,99996.16
2023-07-24T01:25:37.764Z,100002.72
2023-07-24T01:28:09.058Z,99999.22
2023-07-24T01:30:36.432Z,99999.91
2023-07-24T01:33:03.778Z,99997.09
2023-07-24T01:35:33.100Z,100002.78
2023-07-24T01:38:01.370Z,99997.28
2023-07-24T01:40:28.519Z,99992.22
2023-07-24T01:42:55.439Z,99989.53
2023-07-24T01:45:25.089Z,99985.53
2023-07-24T01:47:51.959Z,99986.03
2023-07-24T01:50:19.072Z,99982.00
2023-07-24T01:52:46.501Z,99987.19
2023-07-24T01:55:13.640Z,99982.50
2023-07-24T01:57:40.497Z,99986.88
2023-07-24T02:00:08.398Z,99991.59
2023-07-24T02:02:35.360Z,99993.63
2023-07-24T02:05:02.590Z,99999.16
2023-07-24T02:07:29.409Z,99998.16
2023-07-24T02:09:56.600Z,99991.13
2023-07-24T02:12:23.585Z,99990.84
2023-07-24T02:14:52.672Z,99986.44
2023-07-24T02:17:19.791Z,99993.19
2023-07-24T02:19:46.929Z,99986.97
2023-07-24T02:22:13.775Z,99992.84
2023-07-24T02:24:40.968Z,99991.56
2023-07-24T02:27:07.984Z,99993.09
2023-07-24T02:29:35.178Z,99995.44
2023-07-24T02:32:02.025Z,99992.25
2023-07-24T02:34:29.578Z,99994.94
2023-07-24T02:36:56.675Z,99995.66
2023-07-24T02:39:23.840Z,99998.47
2023-07-24T02:41:50.768Z,99995.13
2023-07-24T02:44:17.895Z,99990.13
2023-07-24T02:46:44.922Z,99989.44
2023-07-24T02:49:12.031Z,99993.94
2023-07-24T02:51:38.891Z,99984.06
2023-07-24T02:54:07.380Z,99990.13
2023-07-24T02:56:34.333Z,99993.13
2023-07-24T02:59:01.456Z,99993.81
2023-07-24T03:01:28.422Z,99990.63
2023-07-24T03:03:55.503Z,99986.25
2023-07-24T03:06:22.374Z,99988.25
2023-07-24T03:08:49.613Z,99993.34
2023-07-24T03:11:16.465Z,99986.75
2023-07-24T03:13:44.194Z,99988.97
2023-07-24T03:16:11.104Z,99985.47
2023-07-24T03:18:38.284Z,99985.09
2023-07-24T03:21:05.305Z,99980.09
2023-07-24T03:23:32.431Z,99988.28
2023-07-24T03:25:59.255Z,99992.63
2023-07-24T03:28:26.945Z,99976.38
2023-07-24T03:30:54.274Z,99975.53
2023-07-24T03:33:22.077Z,99975.56
2023-07-24T03:35:48.906Z,99975.72
2023-07-24T03:38:16.042Z,99976.03
2023-07-24T03:40:43.288Z,99978.06
2023-07-24T03:43:10.397Z,99977.06
2023-07-24T03:45:37.293Z,99985.44
2023-07-24T03:48:04.545Z,99980.75
2023-07-24T03:50:31.834Z,99975.03
2023-07-24T03:52:59.030Z,99976.22
2023-07-24T03:55:25.896Z,99975.56
2023-07-24T03:57:53.038Z,99975.56
2023-07-24T04:00:19.936Z,99976.72
2023-07-24T04:02:48.464Z,99978.41
2023-07-24T04:05:15.632Z,99981.94
2023-07-24T04:07:42.772Z,99977.56
2023-07-24T04:10:10.059Z,99970.34
2023-07-24T04:12:37.205Z,99972.69
2023-07-24T04:15:04.376Z,99969.53
2023-07-24T04:17:31.524Z,99972.22
2023-07-24T04:19:58.444Z,99970.69
2023-07-24T04:22:26.506Z,99980.25
2023-07-24T04:24:53.447Z,99969.34
2023-07-24T04:27:20.553Z,99973.53
2023-07-24T04:29:47.392Z,99971.50
2023-07-24T04:32:14.501Z,99967.50
2023-07-24T04:34:41.368Z,99966.28
2023-07-24T04:37:08.544Z,99967.25
2023-07-24T04:39:35.496Z,99958.53
2023-07-24T04:42:02.660Z,99967.94
2023-07-24T04:44:29.566Z,99964.56
2023-07-24T04:46:57.011Z,99967.56
2023-07-24T04:49:24.470Z,99971.84
2023-07-24T04:51:52.196Z,99969.34
2023-07-24T04:54:19.041Z,99977.38
2023-07-24T04:56:46.131Z,99979.41
2023-07-24T04:59:13.028Z,99980.38
2023-07-24T05:01:40.227Z,99992.44
2023-07-24T05:04:07.107Z,99987.38
2023-07-24T05:06:36.416Z,99982.34
2023-07-24T05:09:03.731Z,99991.47
2023-07-24T05:11:30.915Z,99984.66
2023-07-24T05:13:57.800Z,99983.72
2023-07-24T05:16:24.970Z,99972.78
2023-07-24T05:18:51.932Z,99988.13
2023-07-24T05:21:19.053Z,99978.63
2023-07-24T05:23:45.914Z,99975.78
2023-07-24T05:26:13.085Z,99980.28
2023-07-24T05:28:39.978Z,99979.56
2023-07-24T05:31:07.324Z,99982.50
2023-07-24T05:33:34.224Z,99984.59
2023-07-24T05:36:05.209Z,99981.16
2023-07-24T05:38:32.236Z,99979.69
2023-07-24T05:41:00.747Z,99972.53
2023-07-24T05:43:28.737Z,99974.50
2023-07-24T05:45:57.414Z,99976.53
2023-07-24T05:48:25.491Z,99976.91
2023-07-24T05:50:53.026Z,99972.94
2023-07-24T05:53:20.005Z,99977.13
2023-07-24T05:55:47.192Z,99972.22
2023-07-24T05:58:14.070Z,99968.56
2023-07-24T06:00:41.190Z,99962.75
2023-07-24T06:03:08.960Z,99961.91
2023-07-24T06:05:36.875Z,99964.31
2023-07-24T06:08:03.809Z,99959.47
2023-07-24T06:10:30.949Z,99954.66
2023-07-24T06:12:57.861Z,99954.38
2023-07-24T06:15:24.969Z,99950.59
2023-07-24T06:17:54.553Z,99956.38
2023-07-24T06:20:22.308Z,99956.38
2023-07-24T06:22:49.203Z,99953.69
2023-07-24T06:25:16.369Z,99954.16
2023-07-24T06:27:43.291Z,99958.78
2023-07-24T06:30:15.564Z,99953.69
2023-07-24T06:32:43.121Z,99959.63
2023-07-24T06:35:10.534Z,99954.69
2023-07-24T06:37:37.518Z,99956.91
2023-07-24T06:40:05.426Z,99960.78
2023-07-24T06:42:32.318Z,99962.28
2023-07-24T06:44:59.494Z,99952.13
2023-07-24T06:47:26.591Z,99956.75
2023-07-24T06:49:53.708Z,99964.75
2023-07-24T06:52:20.604Z,99952.03
2023-07-24T06:54:47.876Z,99952.56
2023-07-24T06:57:14.951Z,99955.47
2023-07-24T06:59:42.149Z,99955.44
2023-07-24T07:02:09.038Z,99952.69
2023-07-24T07:04:36.141Z,99956.63
2023-07-24T07:07:03.230Z,99947.09
2023-07-24T07:09:30.578Z,99944.19
2023-07-24T07:11:57.466Z,99943.34
2023-07-24T07:14:24.601Z,99939.31
2023-07-24T07:16:51.503Z,99934.19
2023-07-24T07:19:18.580Z,99936.25
2023-07-24T07:21:45.453Z,99925.31
2023-07-24T07:24:12.640Z,99928.91
2023-07-24T07:26:39.780Z,99926.56
2023-07-24T07:29:07.104Z,99923.59
2023-07-24T07:31:34.019Z,99920.38
2023-07-24T07:34:01.223Z,99917.97
2023-07-24T07:36:28.505Z,99919.09
2023-07-24T07:38:55.729Z,99918.13
2023-07-24T07:41:22.601Z,99910.94
2023-07-24T07:43:49.775Z,99908.31
2023-07-24T07:46:16.931Z,99912.06
2023-07-24T07:48:44.089Z,99906.41
2023-07-24T07:51:10.878Z,99905.38
2023-07-24T07:53:38.220Z,99900.19
2023-07-24T07:56:05.543Z,99899.84
2023-07-24T07:58:32.774Z,99915.06
2023-07-24T08:00:59.720Z,99907.56
2023-07-24T08:03:26.987Z,99921.50
2023-07-24T08:05:58.705Z,99907.75
2023-07-24T08:08:26.606Z,99893.81
2023-07-24T08:10:53.450Z,99906.28
2023-07-24T08:13:20.659Z,99906.03
2023-07-24T08:15:47.588Z,99902.22
2023-07-24T08:18:15.085Z,99898.69
2023-07-24T08:20:42.046Z,99905.53
2023-07-24T08:23:09.193Z,99903.25
2023-07-24T08:25:36.045Z,99889.63
2023-07-24T08:28:06.181Z,99897.38
2023-07-24T08:30:35.307Z,99891.94
2023-07-24T08:33:02.715Z,99896.50
2023-07-24T08:35:30.087Z,99906.47
2023-07-24T08:37:57.467Z,99887.63
2023-07-24T08:40:24.329Z,99898.88
2023-07-24T08:42:54.272Z,99893.34
2023-07-24T08:45:21.608Z,99890.38
2023-07-24T08:47:49.651Z,99889.13
2023-07-24T08:50:18.243Z,99886.50
2023-07-24T08:52:47.643Z,99871.19
2023-07-24T08:55:14.696Z,99880.88
2023-07-24T08:57:41.865Z,99867.72
2023-07-24T09:00:09.316Z,99873.16
2023-07-24T09:02:37.171Z,99872.47
2023-07-24T09:05:05.009Z,99870.97
2023-07-24T09:07:32.497Z,99863.66
2023-07-24T09:09:59.892Z,99854.97
2023-07-24T09:12:26.834Z,99848.03
2023-07-24T09:15:08.369Z,99852.94
2023-07-24T09:17:35.868Z,99854.88
2023-07-24T09:20:04.972Z,99855.50
2023-07-24T09:22:32.872Z,99847.19
2023-07-24T09:25:04.469Z,99848.50
2023-07-24T09:27:32.663Z,99843.16
2023-07-24T09:30:00.577Z,99841.97
2023-07-24T09:32:28.569Z,99846.38
2023-07-24T09:34:56.128Z,99843.69
2023-07-24T09:37:31.835Z,99837.97
2023-07-24T09:40:00.280Z,99833.19
2023-07-24T09:42:44.109Z,99825.53
2023-07-24T09:45:23.432Z,99819.78
2023-07-24T09:47:56.742Z,99820.91
2023-07-24T09:50:27.796Z,99813.66
2023-07-24T09:52:56.556Z,99811.34
2023-07-24T09:55:30.945Z,99816.09
2023-07-24T09:57:59.927Z,99801.06
2023-07-24T10:00:28.132Z,99801.09
2023-07-24T10:02:55.275Z,99795.69
2023-07-24T10:05:22.816Z,99791.28
2023-07-24T10:07:50.868Z,99793.56
2023-07-24T10:10:18.492Z,99781.59
2023-07-24T10:12:45.833Z,99780.66
2023-07-24T10:15:13.291Z,99780.28
2023-07-24T10:17:43.311Z,99782.75
2023-07-24T10:20:12.626Z,99780.16
2023-07-24T10:22:43.787Z,99782.50
2023-07-24T10:25:12.411Z,99775.09
2023-07-24T10:27:50.454Z,99772.81
2023-07-24T10:30:33.583Z,99775.19
2023-07-24T10:33:31.217Z,99763.63
2023-07-24T10:36:07.204Z,99752.00
2023-07-24T10:38:40.296Z,99754.69
2023-07-24T10:41:09.966Z,99746.38
2023-07-24T10:43:49.237Z,99740.34
2023-07-24T10:46:21.174Z,99740.00
2023-07-24T10:48:50.587Z,99739.59
2023-07-24T10:51:18.427Z,99732.53
2023-07-24T10:53:49.776Z,99737.34
2023-07-24T10:56:18.244Z,99727.59
2023-07-24T10:58:45.227Z,99738.16
2023-07-24T11:01:12.984Z,99731.47
2023-07-24T11:03:42.962Z,99720.00
2023-07-24T11:06:15.623Z,99722.59
2023-07-24T11:08:43.226Z,99708.50
2023-07-24T11:11:10.459Z,99693.00
2023-07-24T11:13:39.122Z,99691.25
2023-07-24T11:16:08.088Z,99688.31
2023-07-24T11:18:54.707Z,99691.81
2023-07-24T11:21:24.850Z,99689.13
2023-07-24T11:23:54.198Z,99678.44
2023-07-24T11:26:26.267Z,99685.16
2023-07-24T11:28:54.826Z,99682.75
2023-07-24T11:31:22.273Z,99674.47
2023-07-24T11:33:51.553Z,99668.03
2023-07-24T11:36:18.922Z,99666.16
2023-07-24T11:38:47.227Z,99655.22
2023-07-24T11:41:15.251Z,99656.72
2023-07-24T11:43:50.496Z,99642.91
2023-07-24T11:46:28.619Z,99629.16
2023-07-24T11:48:58.567Z,99629.75
2023-07-24T11:51:28.726Z,99622.47
2023-07-24T11:54:12.358Z,99621.81
2023-07-24T11:56:39.302Z,99619.34
2023-07-24T11:59:13.981Z,99614.41
2023-07-24T12:01:41.255Z,99610.00
2023-07-24T12:04:08.843Z,99609.19
2023-07-24T12:06:36.860Z,99600.91
2023-07-24T12:09:06.510Z,99588.88
2023-07-24T12:11:34.035Z,99599.84
2023-07-24T12:14:01.202Z,99591.94
2023-07-24T12:16:29.725Z,99590.38
2023-07-24T12:18:56.947Z,99584.47
2023-07-24T12:21:23.798Z,99566.94
2023-07-24T12:23:50.950Z,99575.59
2023-07-24T12:26:17.797Z,99580.09
2023-07-24T12:28:44.880Z,99570.78
2023-07-24T12:31:11.869Z,99571.59
2023-07-24T12:33:39.220Z,99554.84
2023-07-24T12:36:06.109Z,99556.75
2023-07-24T12:38:33.242Z,99560.41
2023-07-24T12:41:00.192Z,99557.16
2023-07-24T12:43:27.362Z,99544.47
2023-07-24T12:45:54.331Z,99541.78
2023-07-24T12:48:22.101Z,99528.25
2023-07-24T12:50:49.070Z,99527.72
2023-07-24T12:53:17.877Z,99527.91
2023-07-24T12:55:50.459Z,99525.53
2023-07-24T12:58:17.599Z,99525.28
2023-07-24T13:00:44.451Z,99519.50
2023-07-24T13:03:11.731Z,99509.94
2023-07-24T13:05:39.364Z,99514.84
2023-07-24T13:08:06.501Z,99506.63
2023-07-24T13:10:33.413Z,99506.56
2023-07-24T13:13:02.186Z,99496.94
2023-07-24T13:15:30.762Z,99501.63
2023-07-24T13:17:58.075Z,99497.28
2023-07-24T13:20:26.052Z,99490.13
2023-07-24T13:22:53.188Z,99496.19
2023-07-24T13:25:20.282Z,99489.66
2023-07-24T13:27:47.496Z,99484.97
2023-07-24T13:30:14.337Z,99485.50
2023-07-24T13:32:41.648Z,99472.66
2023-07-24T13:35:08.911Z,99470.69
2023-07-24T13:37:36.153Z,99462.16
2023-07-24T13:40:03.135Z,99466.03
2023-07-24T13:42:30.299Z,99465.44
2023-07-24T13:44:57.224Z,99453.13
2023-07-24T13:47:24.418Z,99441.09
2023-07-24T13:49:51.336Z,99451.53
2023-07-24T13:52:18.579Z,99446.03
2023-07-24T13:54:45.481Z,99447.16
2023-07-24T13:57:14.525Z,99444.13
2023-07-24T13:59:41.370Z,99444.38
2023-07-24T14:02:08.640Z,99431.50
2023-07-24T14:04:35.665Z,99428.47
2023-07-24T14:07:02.833Z,99435.16
2023-07-24T14:09:29.756Z,99422.69
2023-07-24T14:11:57.061Z,99415.78
2023-07-24T14:14:24.763Z,99425.56
2023-07-24T14:16:52.110Z,99409.75
2023-07-24T14:19:19.186Z,99396.75
2023-07-24T14:21:46.525Z,99394.47
2023-07-24T14:24:13.497Z,99390.41
2023-07-24T14:26:40.685Z,99379.53
2023-07-24T14:29:07.641Z,99369.06
2023-07-24T14:31:35.138Z,99365.97
2023-07-24T14:34:02.245Z,99369.06
2023-07-24T14:36:34.764Z,99354.22
2023-07-24T14:39:02.001Z,99363.03
2023-07-24T14:41:29.549Z,99347.00
2023-07-24T14:43:56.738Z,99356.16
2023-07-24T14:46:23.937Z,99354.25
2023-07-24T14:48:50.880Z,99351.34
2023-07-24T14:51:17.984Z,99334.97
2023-07-24T14:53:44.840Z,99340.31
2023-07-24T14:56:12.015Z,99308.25
2023-07-24T14:58:38.954Z,99310.47
2023-07-24T15:01:06.516Z,99312.47
2023-07-24T15:03:33.617Z,99303.09
2023-07-24T15:06:04.909Z,99302.28
2023-07-24T15:08:32.083Z,99317.69
2023-07-24T15:10:59.376Z,99302.41
2023-07-24T15:13:26.235Z,99303.50
2023-07-24T15:15:53.540Z,99322.53
2023-07-24T15:18:20.459Z,99318.78
2023-07-24T15:20:47.675Z,99311.59
2023-07-24T15:23:14.664Z,99306.84
2023-07-24T15:25:41.962Z,99293.66
2023-07-24T15:28:10.056Z,99292.34
2023-07-24T15:30:37.172Z,99302.19
2023-07-24T15:33:04.151Z,99293.44
2023-07-24T15:35:31.343Z,99287.13
2023-07-24T15:37:58.198Z,99275.91
2023-07-24T15:40:25.395Z,99276.16
2023-07-24T15:42:52.550Z,99281.66
2023-07-24T15:45:19.849Z,99275.13
2023-07-24T15:47:46.738Z,99274.25
2023-07-24T15:50:13.937Z,99284.28
2023-07-24T15:52:40.794Z,99290.56
2023-07-24T15:55:08.353Z,99314.28
2023-07-24T15:57:35.873Z,99305.50
2023-07-24T16:00:03.174Z,99304.13
2023-07-24T16:02:30.226Z,99288.72
2023-07-24T16:04:57.579Z,99279.06
2023-07-24T16:07:24.411Z,99282.06
2023-07-24T16:09:51.571Z,99286.66
2023-07-24T16:12:18.468Z,99278.03
2023-07-24T16:14:45.609Z,99284.00
2023-07-24T16:17:12.554Z,99274.66
2023-07-24T16:19:40.153Z,99266.91
2023-07-24T16:22:07.464Z,99272.56
2023-07-24T16:24:35.207Z,99263.38
2023-07-24T16:27:05.054Z,99259.00
2023-07-24T16:29:33.504Z,99261.53
2023-07-24T16:32:00.664Z,99233.69
2023-07-24T16:34:29.345Z,99230.16
2023-07-24T16:36:57.036Z,99241.81
2023-07-24T16:39:24.496Z,99229.19
2023-07-24T16:41:52.764Z,99239.75
2023-07-24T16:44:19.895Z,99244.38
2023-07-24T16:46:46.738Z,99226.50
2023-07-24T16:49:13.970Z,99238.38
2023-07-24T16:51:40.927Z,99235.81
2023-07-24T16:54:08.099Z,99241.59
2023-07-24T16:56:34.932Z,99242.66
2023-07-24T16:59:02.060Z,99242.09
2023-07-24T17:01:29.254Z,99233.38
2023-07-24T17:03:58.936Z,99238.00
2023-07-24T17:06:26.132Z,99248.38
2023-07-24T17:08:53.347Z,99240.72
2023-07-24T17:11:20.218Z,99220.31
2023-07-24T17:13:48.338Z,99234.66
2023-07-24T17:16:15.315Z,99234.19
2023-07-24T17:18:42.413Z,99235.75
2023-07-24T17:21:09.274Z,99229.09
2023-07-24T17:23:36.488Z,99221.13
2023-07-24T17:26:03.376Z,99228.53
2023-07-24T17:28:30.455Z,99226.88
2023-07-24T17:30:57.354Z,99228.09
2023-07-24T17:33:26.331Z,99231.81
2023-07-24T17:35:53.440Z,99227.69
2023-07-24T17:38:20.538Z,99226.56
2023-07-24T17:40:47.469Z,99227.56
2023-07-24T17:43:14.549Z,99227.66
2023-07-24T17:45:41.376Z,99230.53
2023-07-24T17:48:08.609Z,99219.00
2023-07-24T17:50:36.157Z,99212.22
2023-07-24T17:53:03.275Z,99211.50
2023-07-24T17:55:30.181Z,99214.22
2023-07-24T17:57:57.373Z,99201.81
2023-07-24T18:00:24.282Z,99202.88
2023-07-24T18:02:51.535Z,99214.44
2023-07-24T18:05:18.571Z,99212.22
2023-07-24T18:07:45.735Z,99208.31
2023-07-24T18:10:12.784Z,99198.38
2023-07-24T18:12:40.674Z,99195.81
2023-07-24T18:15:08.044Z,99186.84
2023-07-24T18:17:35.417Z,99193.34
2023-07-24T18:20:02.368Z,99185.09
2023-07-24T18:22:29.812Z,99187.47
2023-07-24T18:24:56.755Z,99184.91
2023-07-24T18:27:24.867Z,99180.63
2023-07-24T18:29:51.936Z,99172.78
2023-07-24T18:32:19.098Z,99165.16
2023-07-24T18:34:46.073Z,99175.66
2023-07-24T18:37:13.249Z,99168.19
2023-07-24T18:39:40.196Z,99166.56
2023-07-24T18:42:08.270Z,99173.56
2023-07-24T18:44:35.999Z,99183.63
2023-07-24T18:47:03.164Z,99204.41
2023-07-24T18:49:30.105Z,99196.28
2023-07-24T18:51:57.224Z,99198.06
2023-07-24T18:54:24.123Z,99188.50
2023-07-24T18:56:52.153Z,99198.63
2023-07-24T18:59:19.026Z,99198.91
2023-07-24T19:01:46.237Z,99206.25
2023-07-24T19:04:13.166Z,99208.88
2023-07-24T19:06:40.286Z,99209.91
2023-07-24T19:09:07.147Z,99209.44
2023-07-24T19:11:34.481Z,99181.38
2023-07-24T19:14:01.519Z,99198.16
2023-07-24T19:16:28.750Z,99197.47
2023-07-24T19:18:55.734Z,99195.09
2023-07-24T19:21:22.915Z,99198.75
2023-07-24T19:23:49.775Z,99199.09
2023-07-24T19:26:16.907Z,99211.97
2023-07-24T19:28:43.905Z,99203.84
2023-07-24T19:31:11.089Z,99206.81
2023-07-24T19:33:37.955Z,99207.41
2023-07-24T19:36:05.341Z,99212.03
2023-07-24T19:38:32.184Z,99223.81
2023-07-24T19:41:02.313Z,99208.34
2023-07-24T19:43:29.209Z,99206.84
2023-07-24T19:45:56.735Z,99209.06
2023-07-24T19:48:25.813Z,99205.75
2023-07-24T19:50:57.315Z,99208.22
2023-07-24T19:53:25.486Z,99208.09
2023-07-24T19:55:53.888Z,99200.66
2023-07-24T19:58:32.066Z,99208.72
2023-07-24T20:01:00.855Z,99196.78
2023-07-24T20:03:28.836Z,99201.72
2023-07-24T20:06:06.899Z,99211.44
2023-07-24T20:08:35.638Z,99217.88
2023-07-24T20:11:08.212Z,99202.66
2023-07-24T20:13:36.302Z,99188.16
2023-07-24T20:16:03.601Z,99163.84
2023-07-24T20:18:30.564Z,99179.78
2023-07-24T20:20:57.951Z,99163.75
2023-07-24T20:23:24.871Z,99157.03
2023-07-24T20:25:52.282Z,99146.41
2023-07-24T20:28:21.599Z,99148.78
2023-07-24T20:30:48.877Z,99150.28
2023-07-24T20:33:16.400Z,99147.59
2023-07-24T20:35:47.546Z,99148.75
2023-07-24T20:38:28.807Z,99152.22
2023-07-24T20:40:56.156Z,99142.78
2023-07-24T20:43:23.142Z,99141.72
2023-07-24T20:45:51.947Z,99150.19
2023-07-24T20:48:19.616Z,99139.22
2023-07-24T20:50:47.048Z,99154.28
2023-07-24T20:53:14.012Z,99148.66
2023-07-24T20:55:41.240Z,99138.50
2023-07-24T20:58:08.101Z,99148.34
2023-07-24T21:00:35.226Z,99137.41
2023-07-24T21:03:02.277Z,99131.03
2023-07-24T21:05:29.894Z,99131.16
2023-07-24T21:07:59.826Z,99133.13
2023-07-24T21:10:27.089Z,99135.09
2023-07-24T21:12:53.973Z,99125.22
2023-07-24T21:15:21.081Z,99122.50
2023-07-24T21:17:48.018Z,99120.22
2023-07-24T21:20:15.131Z,99113.63
2023-07-24T21:22:42.003Z,99130.53
2023-07-24T21:25:09.281Z,99142.09
2023-07-24T21:27:36.238Z,99153.16
2023-07-24T21:30:03.900Z,99171.47
2023-07-24T21:32:32.960Z,99180.44
2023-07-24T21:35:00.299Z,99184.72
2023-07-24T21:37:27.219Z,99190.00
2023-07-24T21:39:54.294Z,99190.88
2023-07-24T21:42:21.178Z,99200.75
2023-07-24T21:44:48.421Z,99204.88
2023-07-24T21:47:15.239Z,99202.69
2023-07-24T21:49:42.320Z,99208.03
2023-07-24T21:52:09.146Z,99208.69
2023-07-24T21:54:38.870Z,99220.63
2023-07-24T21:57:07.758Z,99224.78
2023-07-24T21:59:34.868Z,99222.06
2023-07-24T22:02:01.779Z,99232.88
2023-07-24T22:04:29.003Z,99238.50
2023-07-24T22:06:56.179Z,99235.03
2023-07-24T22:09:23.350Z,99232.63
2023-07-24T22:11:50.166Z,99242.00
2023-07-24T22:14:17.337Z,99245.63
2023-07-24T22:16:44.204Z,99231.19
2023-07-24T22:19:11.362Z,99233.50
2023-07-24T22:21:38.225Z,99230.44
2023-07-24T22:24:05.516Z,99231.47
2023-07-24T22:26:32.351Z,99233.13
2023-07-24T22:28:59.483Z,99245.97
2023-07-24T22:31:26.393Z,99238.09
2023-07-24T22:33:53.502Z,99235.22
2023-07-24T22:36:20.351Z,99233.44
2023-07-24T22:38:47.967Z,99234.38
2023-07-24T22:41:15.051Z,99232.13
2023-07-24T22:43:42.320Z,99222.78
2023-07-24T22:46:09.433Z,99215.56
2023-07-24T22:48:36.735Z,99197.38
2023-07-24T22:51:03.534Z,99174.34
2023-07-24T22:53:30.601Z,99152.75
2023-07-24T22:55:57.435Z,99151.97
2023-07-24T22:58:25.449Z,99142.28
2023-07-24T23:00:52.303Z,99164.31
2023-07-24T23:03:19.553Z,99191.47
2023-07-24T23:05:46.600Z,99225.69
2023-07-24T23:08:13.788Z,99240.41
2023-07-24T23:10:40.613Z,99244.72
2023-07-24T23:13:07.779Z,99241.97
2023-07-24T23:15:34.805Z,99239.88
2023-07-24T23:18:02.032Z,99237.28
2023-07-24T23:20:28.889Z,99234.97
2023-07-24T23:22:56.099Z,99242.63
2023-07-24T23:25:22.943Z,99241.84
2023-07-24T23:27:50.485Z,99255.16
2023-07-24T23:30:17.341Z,99283.69
2023-07-24T23:32:44.600Z,99297.44
2023-07-24T23:35:11.581Z,99309.22
2023-07-24T23:37:38.703Z,99313.63
2023-07-24T23:40:06.118Z,99315.50
2023-07-24T23:42:33.292Z,99328.56
2023-07-24T23:45:00.108Z,99343.97
2023-07-24T23:47:27.254Z,99351.03
2023-07-24T23:49:54.383Z,99360.81
2023-07-24T23:52:21.596Z,99365.22
2023-07-24T23:54:48.555Z,99364.16
2023-07-24T23:57:15.704Z,99376.41
2023-07-24T23:59:42.544Z,99371.03
